Time;durP1;ratioP1;P1;durP2;ratioP2;P2;SDS_P1;SDS_P2;PMS_P1;PMS_P2;Temp;Humidity;BMP_temperature;BMP_pressure;BME280_temperature;BME280_humidity;BME280_pressure;Samples;Min_cycle;Max_cycle;Signal;HPM_P1;HPM_P2
2022/05/30 00:02:03;;;;;;;3.10;1.80;;;10.80;99.90;;;;;;5026105;28;20487;-50
2022/05/30 00:04:30;;;;;;;5.13;1.60;;;10.80;99.90;;;;;;5035914;28;20506;-50
2022/05/30 00:06:56;;;;;;;2.57;2.10;;;10.80;90.40;;;;;;5028759;28;20499;-50
2022/05/30 00:09:23;;;;;;;1.57;1.53;;;10.70;93.60;;;;;;5026365;28;20573;-50
2022/05/30 00:11:51;;;;;;;3.03;1.70;;;10.80;93.30;;;;;;5020858;28;21063;-50
2022/05/30 00:14:18;;;;;;;2.07;1.87;;;10.70;91.10;;;;;;5035177;28;20486;-50
2022/05/30 00:16:44;;;;;;;1.97;1.80;;;10.70;86.20;;;;;;5029475;28;20494;-50
2022/05/30 00:19:12;;;;;;;2.20;2.00;;;10.70;88.20;;;;;;5032338;28;20482;-50
2022/05/30 00:21:38;;;;;;;3.40;1.70;;;10.60;87.90;;;;;;5028089;28;20971;-50
2022/05/30 00:24:06;;;;;;;1.70;1.60;;;10.60;87.10;;;;;;5040320;28;20510;-50
2022/05/30 00:26:32;;;;;;;1.73;1.67;;;10.60;85.50;;;;;;5030999;28;20494;-49
2022/05/30 00:28:59;;;;;;;1.80;1.70;;;10.60;85.60;;;;;;5030737;28;20487;-50
2022/05/30 00:31:25;;;;;;;2.03;1.93;;;10.50;81.30;;;;;;5038503;28;20477;-50
2022/05/30 00:33:52;;;;;;;2.80;1.80;;;10.50;78.00;;;;;;5034966;28;20485;-50
2022/05/30 00:36:20;;;;;;;2.63;1.93;;;10.50;78.30;;;;;;5031101;28;20494;-50
2022/05/30 00:38:46;;;;;;;1.70;1.60;;;10.40;73.40;;;;;;5032303;28;20494;-49
2022/05/30 00:41:13;;;;;;;2.37;1.93;;;10.40;72.00;;;;;;5036812;28;20493;-50
2022/05/30 00:43:41;;;;;;;2.20;2.00;;;10.40;68.00;;;;;;5033109;28;20553;-50
2022/05/30 00:46:12;;;;;;;1.73;1.63;;;10.40;66.70;;;;;;5033544;28;20549;-48
2022/05/30 00:48:42;;;;;;;1.77;1.77;;;10.30;67.90;;;;;;5036351;28;20465;-50
2022/05/30 00:51:12;;;;;;;1.80;1.70;;;10.30;62.30;;;;;;5032450;28;20641;-49
2022/05/30 00:53:42;;;;;;;2.13;2.03;;;10.30;62.30;;;;;;5032296;28;20465;-50
2022/05/30 00:56:11;;;;;;;3.03;2.10;;;10.30;57.70;;;;;;5027085;28;20983;-50
2022/05/30 00:58:43;;;;;;;1.90;1.80;;;10.40;59.30;;;;;;5036152;28;20975;-50
2022/05/30 01:01:10;;;;;;;2.13;1.90;;;10.40;61.90;;;;;;5032393;28;20542;-51
2022/05/30 01:06:34;;;;;;;3.20;2.23;;;10.50;61.80;;;;;;5032938;28;20448;-49
2022/05/30 01:09:06;;;;;;;2.90;2.37;;;10.50;58.40;;;;;;5033555;28;20586;-49
2022/05/30 01:11:52;;;;;;;2.43;2.30;;;10.40;59.90;;;;;;5029534;28;20557;-50
2022/05/30 01:14:19;;;;;;;3.07;2.27;;;10.50;58.30;;;;;;5030891;28;20525;-50
2022/05/30 01:16:46;;;;;;;2.93;2.63;;;10.50;59.00;;;;;;5040549;28;20911;-50
2022/05/30 01:19:33;;;;;;;1.87;1.77;;;10.40;58.30;;;;;;5046195;28;20497;-49
2022/05/30 01:22:23;;;;;;;5.00;2.27;;;10.50;57.90;;;;;;5028020;28;20485;-49
2022/05/30 01:25:03;;;;;;;2.40;2.20;;;10.50;55.30;;;;;;5024854;28;21066;-50
2022/05/30 01:27:38;;;;;;;2.63;2.43;;;10.50;54.10;;;;;;5029409;28;21170;-50
2022/05/30 01:30:11;;;;;;;2.90;2.70;;;10.50;52.10;;;;;;5029291;28;20521;-50
2022/05/30 01:32:37;;;;;;;2.10;2.00;;;10.50;54.40;;;;;;5022111;28;20546;-50
2022/05/30 01:35:05;;;;;;;3.57;2.43;;;10.50;53.90;;;;;;5030919;28;21059;-49
2022/05/30 01:37:32;;;;;;;2.33;1.93;;;10.50;55.20;;;;;;5028870;28;20545;-49
2022/05/30 01:39:58;;;;;;;2.40;2.30;;;10.50;53.10;;;;;;5030364;28;20896;-49
2022/05/30 01:42:25;;;;;;;3.13;2.47;;;10.50;51.70;;;;;;5027880;28;20545;-50
2022/05/30 01:44:53;;;;;;;3.80;2.47;;;10.50;52.90;;;;;;5030282;28;20489;-50
2022/05/30 01:47:20;;;;;;;2.47;2.23;;;10.50;51.20;;;;;;5031751;28;20542;-50
2022/05/30 01:49:47;;;;;;;3.20;2.17;;;10.50;51.40;;;;;;5028110;28;20569;-49
2022/05/30 01:52:14;;;;;;;2.90;2.37;;;10.50;49.60;;;;;;5026084;28;20545;-50
2022/05/30 01:54:40;;;;;;;3.60;2.60;;;10.50;45.30;;;;;;5031861;28;20581;-50
2022/05/30 01:57:07;;;;;;;2.43;2.27;;;10.50;44.90;;;;;;5033414;28;20553;-49
2022/05/30 01:59:33;;;;;;;2.10;2.00;;;10.50;41.20;;;;;;5031585;28;20545;-50
2022/05/30 02:02:00;;;;;;;3.70;2.23;;;10.60;46.30;;;;;;5028242;28;20562;-50
2022/05/30 02:04:28;;;;;;;3.70;2.60;;;10.50;47.00;;;;;;5025476;28;20536;-49
2022/05/30 02:06:54;;;;;;;2.80;2.37;;;10.50;46.60;;;;;;5024629;28;20462;-50
2022/05/30 02:09:22;;;;;;;3.10;2.80;;;10.50;41.90;;;;;;5038024;28;20549;-50
2022/05/30 02:11:49;;;;;;;2.70;2.50;;;10.50;40.10;;;;;;5029217;28;20463;-50
2022/05/30 02:14:15;;;;;;;4.00;2.40;;;10.40;40.40;;;;;;5039557;28;20565;-49
2022/05/30 02:19:27;;;;;;;6.23;3.00;;;10.50;39.80;;;;;;5030410;28;20552;-50
2022/05/30 02:21:54;;;;;;;3.60;2.43;;;10.40;37.00;;;;;;5028618;28;20482;-49
2022/05/30 02:24:21;;;;;;;2.60;2.00;;;10.40;38.50;;;;;;5027597;28;20569;-49
2022/05/30 02:26:48;;;;;;;6.13;3.10;;;10.40;38.00;;;;;;5032720;28;20455;-49
2022/05/30 02:29:15;;;;;;;2.50;2.40;;;10.40;33.70;;;;;;5025470;28;20977;-50
2022/05/30 02:31:42;;;;;;;3.80;2.90;;;10.40;36.40;;;;;;5027313;28;20569;-50
2022/05/30 02:36:55;;;;;;;9.00;2.47;;;10.40;30.30;;;;;;5024694;28;20453;-50
2022/05/30 02:39:23;;;;;;;5.47;2.70;;;10.30;29.10;;;;;;5032472;28;20520;-50
2022/05/30 02:41:50;;;;;;;2.30;2.20;;;10.40;30.50;;;;;;5026169;28;20549;-50
2022/05/30 02:44:19;;;;;;;2.60;2.50;;;10.30;27.90;;;;;;5025169;28;20565;-49
2022/05/30 02:46:46;;;;;;;3.00;2.80;;;10.30;25.90;;;;;;5018161;28;20463;-50
2022/05/30 02:49:13;;;;;;;7.00;3.50;;;10.30;24.30;;;;;;5026380;28;21181;-50
2022/05/30 02:51:40;;;;;;;5.03;3.03;;;10.30;21.40;;;;;;5030873;28;20590;-50
2022/05/30 02:54:09;;;;;;;10.50;3.30;;;10.30;21.70;;;;;;5031385;28;20513;-50
2022/05/30 02:56:35;;;;;;;5.30;3.57;;;10.30;23.50;;;;;;5033884;28;20545;-50
2022/05/30 02:59:04;;;;;;;4.00;2.80;;;10.30;23.40;;;;;;5036124;28;20558;-50
2022/05/30 03:01:31;;;;;;;7.40;3.13;;;10.30;22.60;;;;;;5022475;28;20547;-50
2022/05/30 03:03:58;;;;;;;14.40;3.70;;;10.30;23.00;;;;;;5024675;28;20980;-49
2022/05/30 03:06:25;;;;;;;9.73;3.70;;;10.30;87.60;;;;;;5034895;28;21026;-50
2022/05/30 03:08:52;;;;;;;5.07;3.80;;;10.20;90.00;;;;;;5027463;28;20604;-50
2022/05/30 03:11:20;;;;;;;3.27;3.03;;;10.20;91.00;;;;;;5026991;28;20490;-50
2022/05/30 03:13:47;;;;;;;5.30;3.37;;;10.20;83.80;;;;;;5021085;28;20554;-50
2022/05/30 03:16:13;;;;;;;4.90;3.50;;;10.20;81.20;;;;;;5030893;28;20911;-50
2022/05/30 03:18:40;;;;;;;6.90;3.40;;;10.20;84.50;;;;;;5029761;28;21317;-50
2022/05/30 03:21:06;;;;;;;7.63;3.57;;;10.20;91.30;;;;;;5028956;28;20501;-49
2022/05/30 03:23:33;;;;;;;16.63;3.90;;;10.20;87.80;;;;;;5022815;28;20542;-50
2022/05/30 03:26:00;;;;;;;10.47;4.10;;;10.20;84.20;;;;;;5026877;28;20586;-50
2022/05/30 03:28:28;;;;;;;12.53;4.37;;;10.10;93.10;;;;;;5026588;28;20553;-50
2022/05/30 03:30:55;;;;;;;6.50;3.50;;;10.20;90.00;;;;;;5026485;28;20590;-49
2022/05/30 03:33:21;;;;;;;5.73;3.27;;;10.20;96.20;;;;;;5034959;28;20488;-50
2022/05/30 03:35:48;;;;;;;8.83;3.43;;;10.20;99.90;;;;;;5025373;28;20609;-50
2022/05/30 03:38:14;;;;;;;4.53;3.17;;;10.20;99.90;;;;;;5027437;28;20893;-50
2022/05/30 03:40:41;;;;;;;6.10;3.50;;;10.20;86.00;;;;;;5032997;28;20463;-50
2022/05/30 03:43:09;;;;;;;5.97;3.23;;;10.20;77.20;;;;;;5024500;28;20843;-49
2022/05/30 03:45:39;;;;;;;11.63;3.70;;;10.20;21.80;;;;;;5032373;28;20486;-50
2022/05/30 03:48:08;;;;;;;10.27;3.60;;;10.20;22.60;;;;;;5037133;28;20964;-50
2022/05/30 03:50:35;;;;;;;14.60;4.00;;;10.20;24.90;;;;;;5024223;28;20474;-50
2022/05/30 03:53:05;;;;;;;10.10;3.73;;;10.20;25.60;;;;;;5022189;28;20548;-49
2022/05/30 03:55:34;;;;;;;8.93;3.63;;;10.20;29.30;;;;;;5025063;28;20935;-50
2022/05/30 03:58:01;;;;;;;9.30;3.60;;;10.20;32.20;;;;;;5027649;28;20463;-50
2022/05/30 04:00:28;;;;;;;11.67;3.77;;;10.20;32.30;;;;;;5029282;28;21060;-49
2022/05/30 04:02:55;;;;;;;10.50;3.57;;;10.20;32.10;;;;;;5030237;28;20553;-50
2022/05/30 04:05:22;;;;;;;9.07;3.80;;;10.20;32.80;;;;;;5025319;28;20902;-49
2022/05/30 04:07:49;;;;;;;9.67;3.90;;;10.20;36.50;;;;;;5019041;28;20565;-49
2022/05/30 04:10:15;;;;;;;7.40;3.67;;;10.20;37.30;;;;;;5024157;28;20485;-49
2022/05/30 04:12:42;;;;;;;11.60;3.00;;;10.20;39.00;;;;;;5024876;28;20535;-50
2022/05/30 04:15:16;;;;;;;12.20;3.93;;;10.20;38.90;;;;;;5026237;28;20216;-50
2022/05/30 04:17:42;;;;;;;9.37;3.20;;;10.20;41.10;;;;;;5028917;28;20545;-50
2022/05/30 04:20:12;;;;;;;9.03;3.70;;;10.20;42.00;;;;;;5026695;28;20549;-48
2022/05/30 04:22:39;;;;;;;7.90;3.43;;;10.20;39.20;;;;;;5021585;28;20487;-48
2022/05/30 04:25:06;;;;;;;11.63;3.10;;;10.30;40.90;;;;;;5029224;28;20569;-52
2022/05/30 04:27:33;;;;;;;10.83;3.93;;;10.30;44.60;;;;;;5025353;28;20462;-53
2022/05/30 04:29:59;;;;;;;11.60;3.50;;;10.30;47.60;;;;;;5031105;28;20482;-53
2022/05/30 04:32:26;;;;;;;15.77;3.30;;;10.30;51.60;;;;;;5022076;28;20545;-53
2022/05/30 04:34:53;;;;;;;13.10;3.20;;;10.30;52.10;;;;;;5018437;28;20563;-53
2022/05/30 04:37:21;;;;;;;9.40;3.53;;;10.30;51.80;;;;;;5021576;28;20542;-53
2022/05/30 04:39:48;;;;;;;7.83;3.60;;;10.40;53.10;;;;;;5016222;28;20554;-53
2022/05/30 04:42:14;;;;;;;7.37;3.10;;;10.40;55.10;;;;;;5020337;28;20482;-53
2022/05/30 04:44:41;;;;;;;5.63;3.17;;;10.40;54.40;;;;;;5027049;28;20578;-53
2022/05/30 04:47:11;;;;;;;9.80;3.00;;;10.40;54.60;;;;;;5022348;28;20562;-54
2022/05/30 04:49:38;;;;;;;15.63;3.67;;;10.40;55.00;;;;;;5021079;28;20465;-53
2022/05/30 04:52:06;;;;;;;15.97;3.80;;;10.50;58.30;;;;;;5021077;28;20526;-53
2022/05/30 04:54:35;;;;;;;20.60;4.90;;;10.50;59.00;;;;;;5016259;28;20495;-48
2022/05/30 04:57:02;;;;;;;18.37;4.10;;;10.50;58.10;;;;;;5021559;28;20560;-54
2022/05/30 04:59:28;;;;;;;7.30;3.20;;;10.50;66.30;;;;;;5020059;28;20451;-53
2022/05/30 05:01:55;;;;;;;7.97;3.37;;;10.50;68.40;;;;;;5023334;28;21043;-54
2022/05/30 05:04:22;;;;;;;12.63;3.50;;;10.50;70.70;;;;;;5028251;28;20556;-53
2022/05/30 05:06:49;;;;;;;8.53;4.00;;;10.40;80.20;;;;;;5032251;22;20621;-52
2022/05/30 05:09:31;;;;;;;17.87;4.03;;;10.50;76.90;;;;;;5004737;28;20479;-51
2022/05/30 05:11:59;;;;;;;10.43;3.00;;;10.50;75.80;;;;;;5001243;28;20618;-52
2022/05/30 05:14:25;;;;;;;6.10;2.70;;;10.50;74.80;;;;;;5008459;28;20582;-50
2022/05/30 05:16:52;;;;;;;13.60;3.53;;;10.50;73.50;;;;;;4993849;28;20570;-52
2022/05/30 05:19:18;;;;;;;18.23;3.50;;;10.50;84.00;;;;;;4987260;28;20557;-52
2022/05/30 05:21:46;;;;;;;16.87;5.00;;;10.50;82.60;;;;;;4989588;28;20456;-51
2022/05/30 05:24:15;;;;;;;7.70;3.33;;;10.60;86.00;;;;;;4990189;28;20465;-52
2022/05/30 05:26:46;;;;;;;11.70;4.10;;;10.60;85.20;;;;;;4983880;28;20499;-51
2022/05/30 05:29:14;;;;;;;16.13;3.43;;;10.60;89.30;;;;;;4983244;28;20547;-52
2022/05/30 05:31:41;;;;;;;14.63;3.77;;;10.60;94.10;;;;;;4983485;28;21702;-52
2022/05/30 05:34:10;;;;;;;8.40;3.33;;;10.70;96.30;;;;;;4988572;28;20543;-52
2022/05/30 05:36:40;;;;;;;14.63;3.57;;;10.70;91.50;;;;;;4986343;28;20563;-50
2022/05/30 05:39:07;;;;;;;22.80;3.80;;;10.70;85.90;;;;;;4992954;28;20584;-51
2022/05/30 05:41:34;;;;;;;15.60;3.90;;;10.80;95.00;;;;;;4992312;28;20588;-51
2022/05/30 05:44:01;;;;;;;13.47;3.90;;;10.70;99.90;;;;;;4995727;28;20491;-51
2022/05/30 05:46:31;;;;;;;13.23;3.80;;;10.70;99.90;;;;;;4993229;28;20570;-51
2022/05/30 05:48:59;;;;;;;9.27;3.20;;;10.70;99.90;;;;;;4991144;28;20575;-50
2022/05/30 05:51:26;;;;;;;15.97;3.00;;;10.70;99.90;;;;;;4991243;28;20572;-51
2022/05/30 05:53:53;;;;;;;8.00;3.97;;;10.70;96.50;;;;;;4990601;28;20556;-51
2022/05/30 05:56:22;;;;;;;12.53;4.17;;;10.70;99.30;;;;;;4993443;28;20480;-51
2022/05/30 05:58:49;;;;;;;8.93;3.47;;;10.70;99.90;;;;;;4994153;28;20547;-51
2022/05/30 06:01:18;;;;;;;16.97;4.17;;;10.70;99.90;;;;;;4991731;28;21044;-51
2022/05/30 06:03:46;;;;;;;20.00;5.47;;;10.70;99.90;;;;;;4996305;28;20919;-51
2022/05/30 06:06:13;;;;;;;11.93;3.40;;;10.70;99.90;;;;;;4993726;28;20555;-52
2022/05/30 06:08:40;;;;;;;11.37;4.30;;;10.80;99.90;;;;;;5001520;28;20551;-51
2022/05/30 06:11:08;;;;;;;17.33;4.33;;;10.70;97.00;;;;;;4988945;28;20579;-52
2022/05/30 06:13:35;;;;;;;20.70;4.40;;;10.70;96.80;;;;;;4995496;28;20474;-52
2022/05/30 06:16:05;;;;;;;11.10;3.50;;;10.70;99.90;;;;;;4989777;28;20846;-51
2022/05/30 06:18:32;;;;;;;11.60;4.00;;;10.70;99.90;;;;;;4991775;28;20904;-52
2022/05/30 06:21:00;;;;;;;15.47;4.40;;;10.80;99.90;;;;;;4987385;28;21041;-52
2022/05/30 06:23:27;;;;;;;11.87;4.27;;;10.80;99.90;;;;;;4987878;28;20974;-52
2022/05/30 06:25:54;;;;;;;9.20;3.70;;;10.80;99.90;;;;;;4989737;28;20575;-53
2022/05/30 06:28:20;;;;;;;8.80;3.47;;;10.80;99.90;;;;;;4985061;28;20560;-51
2022/05/30 06:30:47;;;;;;;12.07;3.77;;;10.90;99.90;;;;;;4983919;28;21006;-51
2022/05/30 06:33:13;;;;;;;13.60;3.67;;;10.80;99.90;;;;;;4981684;28;20548;-52
2022/05/30 06:35:41;;;;;;;12.10;4.37;;;10.90;99.90;;;;;;4986622;28;20575;-51
2022/05/30 06:38:10;;;;;;;14.60;3.53;;;11.00;99.90;;;;;;4983657;28;20551;-52
2022/05/30 06:40:36;;;;;;;22.07;4.07;;;11.00;99.90;;;;;;4981579;28;20464;-51
2022/05/30 06:43:03;;;;;;;9.90;3.60;;;11.00;99.90;;;;;;4987699;28;20548;-52
2022/05/30 06:45:30;;;;;;;6.50;3.33;;;11.00;99.90;;;;;;4992789;28;20574;-52
2022/05/30 06:47:58;;;;;;;15.07;4.03;;;11.00;99.90;;;;;;4984175;28;20543;-51
2022/05/30 06:50:24;;;;;;;9.40;3.70;;;11.00;99.90;;;;;;4983360;28;20457;-51
2022/05/30 06:52:51;;;;;;;11.33;3.90;;;10.90;99.90;;;;;;4983519;28;20483;-51
2022/05/30 06:55:19;;;;;;;13.10;4.47;;;10.90;99.90;;;;;;4981843;28;20559;-52
2022/05/30 07:00:31;;;;;;;10.87;3.73;;;10.80;99.90;;;;;;4985509;28;20450;-52
2022/05/30 07:02:58;;;;;;;14.13;4.00;;;10.90;99.90;;;;;;4987835;28;20457;-52
2022/05/30 07:05:25;;;;;;;14.10;4.60;;;10.90;99.90;;;;;;4991109;28;20468;-54
2022/05/30 07:07:55;;;;;;;23.30;4.87;;;11.00;99.90;;;;;;4988331;28;20466;-51
2022/05/30 07:10:24;;;;;;;9.60;3.63;;;11.00;99.90;;;;;;4996002;28;20456;-52
2022/05/30 07:12:51;;;;;;;11.93;4.40;;;11.10;99.90;;;;;;4987089;28;20502;-51
2022/05/30 07:15:18;;;;;;;8.47;3.43;;;11.10;99.90;;;;;;4991296;28;20562;-52
2022/05/30 07:17:44;;;;;;;9.17;3.43;;;11.20;99.90;;;;;;4988776;28;20567;-52
2022/05/30 07:20:13;;;;;;;10.13;3.60;;;11.20;99.90;;;;;;4986152;28;20464;-51
2022/05/30 07:22:40;;;;;;;13.23;3.63;;;11.20;99.90;;;;;;4986400;28;20471;-53
2022/05/30 07:25:08;;;;;;;9.00;3.40;;;11.30;99.90;;;;;;4984523;28;21036;-51
2022/05/30 07:27:35;;;;;;;13.43;3.90;;;11.40;99.90;;;;;;4988906;28;20896;-52
2022/05/30 07:30:03;;;;;;;9.93;4.00;;;11.50;99.90;;;;;;4986113;28;20540;-50
2022/05/30 07:32:31;;;;;;;15.70;3.37;;;11.60;99.90;;;;;;4989258;28;20484;-51
2022/05/30 07:34:58;;;;;;;15.43;4.00;;;11.50;99.90;;;;;;4991906;28;20978;-51
2022/05/30 07:37:24;;;;;;;16.50;4.00;;;11.50;99.90;;;;;;4987884;28;20579;-51
2022/05/30 07:39:51;;;;;;;13.90;3.73;;;11.50;99.90;;;;;;4992608;28;20560;-51
2022/05/30 07:42:17;;;;;;;11.50;3.40;;;11.50;99.90;;;;;;4983409;28;20468;-51
2022/05/30 07:44:45;;;;;;;10.83;3.60;;;11.50;99.90;;;;;;4990345;28;20530;-51
2022/05/30 07:47:16;;;;;;;9.50;3.40;;;11.50;99.90;;;;;;4995329;28;21088;-51
2022/05/30 07:49:42;;;;;;;8.70;2.87;;;11.50;99.90;;;;;;4989224;28;20575;-51
2022/05/30 07:52:09;;;;;;;14.40;3.57;;;11.50;99.90;;;;;;4986683;28;20989;-51
2022/05/30 07:54:36;;;;;;;11.50;3.57;;;11.50;99.90;;;;;;4993812;28;20559;-51
2022/05/30 07:57:04;;;;;;;12.50;3.03;;;11.50;99.90;;;;;;4989034;28;20571;-51
2022/05/30 07:59:31;;;;;;;13.40;3.20;;;11.60;99.90;;;;;;4989781;28;20476;-50
2022/05/30 08:01:59;;;;;;;16.13;4.03;;;11.70;99.90;;;;;;4985549;28;20491;-52
2022/05/30 08:04:26;;;;;;;8.43;3.50;;;11.70;99.90;;;;;;4992139;28;20551;-52
2022/05/30 08:06:53;;;;;;;11.80;4.07;;;11.70;99.90;;;;;;4987294;28;20583;-51
2022/05/30 08:09:19;;;;;;;38.23;3.77;;;11.70;99.90;;;;;;4995017;28;20564;-51
2022/05/30 08:11:46;;;;;;;19.07;3.90;;;11.60;99.90;;;;;;4992003;28;20488;-51
2022/05/30 08:14:13;;;;;;;9.90;3.30;;;11.60;99.90;;;;;;4993438;28;21028;-52
2022/05/30 08:16:40;;;;;;;84.43;8.73;;;11.60;99.90;;;;;;4988241;28;20488;-51
2022/05/30 08:19:09;;;;;;;40.97;5.00;;;11.60;99.90;;;;;;4983514;28;20453;-52
2022/05/30 08:21:36;;;;;;;20.87;4.10;;;11.60;99.90;;;;;;4981588;28;21179;-52
2022/05/30 08:24:02;;;;;;;7.70;3.10;;;11.60;99.90;;;;;;4983973;28;20555;-51
2022/05/30 08:26:29;;;;;;;101.97;5.23;;;11.70;99.90;;;;;;4979313;28;20493;-51
2022/05/30 08:28:56;;;;;;;13.50;2.87;;;11.80;99.90;;;;;;4977021;28;20468;-52
2022/05/30 08:31:22;;;;;;;14.50;2.87;;;11.80;99.90;;;;;;4980965;28;20558;-51
2022/05/30 08:33:49;;;;;;;14.20;3.23;;;11.90;99.90;;;;;;4986683;28;20558;-51
2022/05/30 08:36:16;;;;;;;9.40;2.53;;;11.90;99.90;;;;;;4988720;28;20575;-51
2022/05/30 08:38:43;;;;;;;18.93;3.40;;;11.90;99.90;;;;;;4987338;28;20622;-51
2022/05/30 08:43:58;;;;;;;9.00;3.00;;;12.00;99.90;;;;;;4998972;28;20438;-52
2022/05/30 08:46:36;;;;;;;15.33;3.20;;;12.10;99.90;;;;;;4986076;28;20550;-51
2022/05/30 08:49:16;;;;;;;8.43;3.33;;;12.10;99.90;;;;;;4992020;28;20558;-52
2022/05/30 08:52:31;;;;;;;4.13;2.27;;;12.00;99.90;;;;;;4993862;28;20981;-51
2022/05/30 08:55:11;;;;;;;17.43;3.03;;;12.00;99.90;;;;;;4954786;28;20527;-52
2022/05/30 08:57:51;;;;;;;7.23;2.87;;;12.10;99.90;;;;;;4995092;28;21042;-51
2022/05/30 09:00:24;;;;;;;11.23;3.80;;;12.40;99.90;;;;;;4993590;28;20559;-52
2022/05/30 09:02:57;;;;;;;3.40;1.77;;;12.50;99.90;;;;;;4987344;28;20555;-52
2022/05/30 09:05:29;;;;;;;14.70;2.80;;;12.70;25.20;;;;;;4988555;28;20563;-53
2022/05/30 09:07:59;;;;;;;52.83;3.77;;;12.80;33.10;;;;;;4991148;28;20580;-52
2022/05/30 09:10:33;;;;;;;49.30;2.20;;;12.80;37.70;;;;;;4985952;28;20452;-51
2022/05/30 09:13:06;;;;;;;38.33;3.03;;;12.80;35.70;;;;;;4990761;28;20554;-51
2022/05/30 09:15:36;;;;;;;21.47;2.80;;;12.80;38.40;;;;;;4982957;28;20480;-51
2022/05/30 09:18:06;;;;;;;14.20;1.67;;;12.80;31.10;;;;;;4989348;28;21267;-52
2022/05/30 09:20:34;;;;;;;21.33;2.50;;;12.80;44.50;;;;;;4985879;28;20571;-52
2022/05/30 09:23:02;;;;;;;100.53;3.17;;;12.90;36.00;;;;;;4988135;28;20551;-52
2022/05/30 09:28:23;;;;;;;1.90;0.83;;;13.40;37.00;;;;;;4992719;28;20463;-52
2022/05/30 09:30:55;;;;;;;0.60;0.57;;;13.20;71.20;;;;;;4992766;28;20571;-52
2022/05/30 09:33:31;;;;;;;7.50;1.83;;;13.20;62.20;;;;;;4988159;28;20519;-52
2022/05/30 09:36:14;;;;;;;10.90;2.63;;;13.30;57.50;;;;;;4988045;28;20900;-51
2022/05/30 09:38:42;;;;;;;3.43;1.50;;;13.50;67.20;;;;;;4985857;28;20510;-52
2022/05/30 09:41:14;;;;;;;6.53;1.77;;;13.60;69.10;;;;;;4981436;28;20461;-52
2022/05/30 09:43:46;;;;;;;5.07;1.60;;;13.60;71.40;;;;;;4987878;28;20460;-52
2022/05/30 09:46:19;;;;;;;3.60;1.90;;;13.70;90.30;;;;;;4987825;28;20531;-51
2022/05/30 09:49:08;;;;;;;2.37;1.50;;;13.80;88.60;;;;;;4988334;28;20460;-51
2022/05/30 09:51:39;;;;;;;12.00;1.87;;;13.90;99.30;;;;;;4989629;28;20551;-53
2022/05/30 09:54:09;;;;;;;2.40;1.77;;;14.10;99.90;;;;;;4991324;28;20728;-51
2022/05/30 09:56:42;;;;;;;3.10;1.80;;;14.30;99.90;;;;;;4992133;28;20480;-51
2022/05/30 09:59:19;;;;;;;66.57;4.50;;;14.50;99.90;;;;;;4993478;28;20452;-51
2022/05/30 10:01:50;;;;;;;2.57;1.17;;;14.50;99.90;;;;;;4989176;28;20540;-52
2022/05/30 10:04:23;;;;;;;3.00;1.20;;;14.60;99.90;;;;;;4989243;28;20457;-51
2022/05/30 10:07:07;;;;;;;2.93;1.10;;;14.80;99.90;;;;;;4990621;28;20575;-52
2022/05/30 10:09:35;;;;;;;8.63;1.43;;;14.60;99.90;;;;;;4989816;28;20551;-51
2022/05/30 10:12:03;;;;;;;2.30;1.40;;;14.50;99.90;;;;;;4985962;28;20515;-52
2022/05/30 10:14:32;;;;;;;3.53;1.17;;;14.40;99.90;;;;;;4997568;28;21048;-51
2022/05/30 10:17:10;;;;;;;1.47;1.20;;;14.10;99.90;;;;;;4989218;28;20487;-51
2022/05/30 10:19:39;;;;;;;12.27;7.47;;;14.20;99.90;;;;;;4998780;28;20973;-50
2022/05/30 10:28:17;;;;;;;16.87;7.40;;;14.50;99.90;;;;;;4991161;28;20510;-51
2022/05/30 10:30:58;;;;;;;32.97;2.90;;;14.70;99.90;;;;;;4988734;28;20502;-52
2022/05/30 10:33:40;;;;;;;6.80;1.90;;;14.60;99.90;;;;;;4990587;28;20479;-51
2022/05/30 10:36:18;;;;;;;42.90;2.77;;;14.60;99.90;;;;;;4988325;28;20480;-52
2022/05/30 10:38:58;;;;;;;23.97;2.37;;;14.80;99.90;;;;;;4992565;28;20534;-51
2022/05/30 10:41:35;;;;;;;63.93;6.83;;;14.80;99.90;;;;;;4990917;28;20550;-52
2022/05/30 10:44:10;;;;;;;14.03;2.40;;;14.60;99.90;;;;;;4994193;28;20547;-51
2022/05/30 10:46:46;;;;;;;3.13;1.40;;;14.60;99.90;;;;;;4991900;28;20520;-51
2022/05/30 10:49:15;;;;;;;87.67;3.73;;;14.50;99.90;;;;;;4995851;28;20622;-51
2022/05/30 10:51:50;;;;;;;24.03;1.53;;;14.50;99.90;;;;;;4987087;28;20568;-51
2022/05/30 10:54:24;;;;;;;3.77;1.83;;;14.40;99.90;;;;;;4985730;28;20571;-52
2022/05/30 10:56:54;;;;;;;3.63;1.40;;;14.40;99.90;;;;;;4986899;28;20559;-51
2022/05/30 10:59:32;;;;;;;3.90;1.60;;;14.30;99.90;;;;;;4990009;28;20543;-52
2022/05/30 11:02:04;;;;;;;23.33;2.00;;;14.30;99.90;;;;;;4986119;28;20584;-51
2022/05/30 11:04:44;;;;;;;2.03;1.40;;;14.50;99.90;;;;;;4987761;28;21026;-51
2022/05/30 11:07:24;;;;;;;8.43;1.33;;;14.70;99.90;;;;;;4986279;28;20504;-51
2022/05/30 11:09:57;;;;;;;63.17;3.67;;;15.00;99.90;;;;;;4981727;28;20856;-52
2022/05/30 11:12:29;;;;;;;49.27;3.50;;;15.20;99.90;;;;;;4980009;28;20568;-51
2022/05/30 11:15:11;;;;;;;3.50;1.63;;;15.30;99.90;;;;;;4989354;28;20931;-50
2022/05/30 11:17:40;;;;;;;2.10;1.20;;;15.20;99.90;;;;;;4983238;28;20575;-51
2022/05/30 11:20:10;;;;;;;35.87;2.77;;;15.10;99.90;;;;;;4989192;28;20559;-53
2022/05/30 11:22:41;;;;;;;4.47;1.60;;;15.10;99.90;;;;;;4989544;28;21057;-52
2022/05/30 11:25:12;;;;;;;1.73;1.60;;;15.20;99.90;;;;;;4992903;28;20491;-52
2022/05/30 11:27:40;;;;;;;26.90;2.20;;;15.20;99.90;;;;;;4990265;28;20530;-52
2022/05/30 11:30:25;;;;;;;2.53;1.57;;;15.30;99.90;;;;;;4996766;28;20467;-52
2022/05/30 11:33:36;;;;;;;71.20;5.97;;;15.40;99.90;;;;;;4992425;28;20575;-52
2022/05/30 11:36:17;;;;;;;5.60;1.77;;;15.50;99.90;;;;;;4989798;28;20472;-52
2022/05/30 11:38:54;;;;;;;3.70;1.63;;;15.30;99.90;;;;;;4985289;28;20491;-53
2022/05/30 11:41:44;;;;;;;4.60;1.87;;;15.20;99.90;;;;;;4988444;28;20543;-52
2022/05/30 11:44:22;;;;;;;10.00;1.93;;;15.10;99.90;;;;;;4990926;28;20441;-52
2022/05/30 11:46:58;;;;;;;3.67;1.70;;;15.00;99.90;;;;;;4997299;28;20511;-52
2022/05/30 11:49:32;;;;;;;9.33;2.20;;;15.00;99.90;;;;;;4979048;28;20464;-53
2022/05/30 11:52:17;;;;;;;4.13;2.40;;;14.80;99.90;;;;;;4989172;28;20515;-51
2022/05/30 11:54:59;;;;;;;3.27;1.50;;;14.80;99.90;;;;;;4994909;28;20604;-53
2022/05/30 11:57:32;;;;;;;24.37;2.20;;;14.70;99.90;;;;;;4991622;28;20483;-52
2022/05/30 12:00:22;;;;;;;9.70;2.30;;;14.80;99.90;;;;;;4993493;28;20942;-53
2022/05/30 12:03:24;;;;;;;3.10;1.40;;;14.80;99.90;;;;;;4994359;28;20866;-52
2022/05/30 12:06:09;;;;;;;7.40;1.83;;;15.10;99.90;;;;;;4998050;28;20501;-52
2022/05/30 12:09:07;;;;;;;37.03;1.93;;;15.30;99.90;;;;;;4985714;28;20465;-52
2022/05/30 12:12:07;;;;;;;21.03;2.07;;;15.40;99.90;;;;;;4985203;28;20994;-54
2022/05/30 12:15:09;;;;;;;77.73;4.37;;;15.20;99.90;;;;;;4983555;28;20480;-52
2022/05/30 12:24:10;;;;;;;78.93;2.73;;;15.00;99.90;;;;;;4982059;28;20452;-52
2022/05/30 12:26:58;;;;;;;3.53;1.70;;;15.20;99.90;;;;;;4987816;28;20584;-53
2022/05/30 12:29:32;;;;;;;5.50;1.90;;;15.30;99.90;;;;;;4982528;28;21139;-51
2022/05/30 12:32:16;;;;;;;3.57;1.60;;;15.40;99.90;;;;;;4984686;28;20588;-52
2022/05/30 12:35:21;;;;;;;5.20;2.10;;;15.70;99.90;;;;;;4988200;28;20472;-52
2022/05/30 12:37:51;;;;;;;7.70;1.77;;;15.80;99.90;;;;;;4914951;29;20460;-52
2022/05/30 12:40:33;;;;;;;3.47;1.67;;;15.70;99.90;;;;;;4905070;29;20966;-52
2022/05/30 12:43:04;;;;;;;4.33;1.77;;;15.80;99.90;;;;;;4956754;28;20460;-52
2022/05/30 12:45:40;;;;;;;15.30;2.23;;;15.70;99.90;;;;;;4988617;28;20973;-52
2022/05/30 12:48:17;;;;;;;5.43;1.60;;;15.70;99.90;;;;;;4998240;28;20467;-51
2022/05/30 12:51:00;;;;;;;4.43;1.77;;;15.50;99.90;;;;;;4992480;28;20991;-51
2022/05/30 12:54:06;;;;;;;2.90;1.77;;;15.50;99.90;;;;;;4994297;28;20472;-52
2022/05/30 12:57:04;;;;;;;8.43;1.70;;;15.50;99.90;;;;;;4984475;28;20490;-51
2022/05/30 12:59:33;;;;;;;4.30;1.77;;;15.50;99.90;;;;;;4988935;28;20903;-52
2022/05/30 13:02:03;;;;;;;2.40;1.30;;;15.40;99.90;;;;;;4990144;28;20491;-52
2022/05/30 13:04:35;;;;;;;6.90;2.00;;;15.30;99.90;;;;;;4991694;28;20467;-52
2022/05/30 13:07:16;;;;;;;4.10;1.27;;;15.30;99.90;;;;;;4994657;28;21191;-52
2022/05/30 13:09:44;;;;;;;5.17;2.17;;;15.20;99.90;;;;;;4989666;28;20484;-51
2022/05/30 13:15:26;;;;;;;8.20;4.00;;;15.00;99.90;;;;;;4987884;28;20524;-52
2022/05/30 13:18:00;;;;;;;5.43;2.77;;;14.90;99.90;;;;;;4999540;28;20555;-52
2022/05/30 13:20:30;;;;;;;4.20;2.43;;;14.90;99.90;;;;;;4985347;28;20919;-53
2022/05/30 13:23:00;;;;;;;9.20;4.37;;;14.90;99.90;;;;;;4998013;28;20461;-52
2022/05/30 13:25:32;;;;;;;8.00;5.53;;;15.00;99.90;;;;;;4988545;28;20825;-52
2022/05/30 13:28:09;;;;;;;4.70;2.20;;;15.00;99.90;;;;;;4985415;28;20461;-52
2022/05/30 13:30:37;;;;;;;6.90;2.27;;;15.20;99.90;;;;;;4988101;28;20471;-52
2022/05/30 13:33:13;;;;;;;9.63;4.70;;;15.40;99.90;;;;;;4989643;28;20484;-51
2022/05/30 13:35:40;;;;;;;2.00;1.50;;;15.50;99.90;;;;;;4996039;28;20546;-52